Time;durP1;ratioP1;P1;durP2;ratioP2;P2;SDS_P1;SDS_P2;PMS_P1;PMS_P2;Temp;Humidity;BMP_temperature;BMP_pressure;BME280_temperature;BME280_humidity;BME280_pressure;Samples;Min_cycle;Max_cycle;Signal;HPM_P1;HPM_P2
2024/01/20 00:00:34;;;;;;;0.20;0.20;;;;;;;;;;6241770;28;20109;-75
2024/01/20 00:03:34;;;;;;;0.20;0.20;;;;;;;;;;6242241;28;20036;-75
2024/01/20 00:06:34;;;;;;;0.20;0.20;;;;;;;;;;6240110;28;20377;-75
2024/01/20 00:09:34;;;;;;;0.30;0.30;;;;;;;;;;6234468;28;20487;-75
2024/01/20 00:12:35;;;;;;;0.30;0.30;;;;;;;;;;6255794;28;20026;-75
2024/01/20 00:15:36;;;;;;;0.20;0.20;;;;;;;;;;6241526;28;20010;-76
2024/01/20 00:18:36;;;;;;;0.20;0.20;;;;;;;;;;6244192;28;20383;-75
2024/01/20 00:21:38;;;;;;;0.20;0.20;;;;;;;;;;6250971;28;20044;-76
2024/01/20 00:24:38;;;;;;;0.30;0.30;;;;;;;;;;6235254;28;20022;-76
2024/01/20 00:27:38;;;;;;;0.30;0.30;;;;;;;;;;6242568;28;20502;-76
2024/01/20 00:30:38;;;;;;;0.20;0.20;;;;;;;;;;6227477;28;20507;-74
2024/01/20 00:33:39;;;;;;;0.30;0.30;;;;;;;;;;6239314;28;20025;-74
2024/01/20 00:36:39;;;;;;;0.30;0.30;;;;;;;;;;6243611;28;20025;-75
2024/01/20 00:39:39;;;;;;;0.30;0.30;;;;;;;;;;6255482;28;20474;-74
2024/01/20 00:42:40;;;;;;;0.30;0.30;;;;;;;;;;6256050;28;20048;-74
2024/01/20 00:45:40;;;;;;;0.30;0.30;;;;;;;;;;6278426;28;20434;-75
2024/01/20 00:48:40;;;;;;;0.30;0.30;;;;;;;;;;6256227;28;20376;-75
2024/01/20 00:51:40;;;;;;;0.30;0.30;;;;;;;;;;6243874;28;20391;-75
2024/01/20 00:54:41;;;;;;;0.40;0.40;;;;;;;;;;6231291;28;20033;-75
2024/01/20 00:57:41;;;;;;;0.30;0.30;;;;;;;;;;6241022;28;20381;-74
2024/01/20 01:00:41;;;;;;;0.20;0.20;;;;;;;;;;6244956;28;20048;-75
2024/01/20 01:03:42;;;;;;;0.20;0.20;;;;;;;;;;6244989;28;20383;-75
2024/01/20 01:06:43;;;;;;;0.30;0.30;;;;;;;;;;6244770;28;20495;-75
2024/01/20 01:09:43;;;;;;;0.33;0.33;;;;;;;;;;6243376;28;20040;-75
2024/01/20 01:12:43;;;;;;;0.20;0.20;;;;;;;;;;6243571;28;20021;-75
2024/01/20 01:15:43;;;;;;;0.30;0.30;;;;;;;;;;6244875;28;20024;-78
2024/01/20 01:18:44;;;;;;;0.30;0.30;;;;;;;;;;6258147;28;20122;-77
2024/01/20 01:21:44;;;;;;;0.20;0.20;;;;;;;;;;6235590;28;20224;-77
2024/01/20 01:24:44;;;;;;;0.30;0.30;;;;;;;;;;6244780;28;20028;-78
2024/01/20 01:27:44;;;;;;;0.30;0.30;;;;;;;;;;6257122;28;20098;-77
2024/01/20 01:30:44;;;;;;;0.30;0.30;;;;;;;;;;6242414;28;20030;-78
2024/01/20 01:33:45;;;;;;;0.20;0.20;;;;;;;;;;6242733;28;20029;-77
2024/01/20 01:36:45;;;;;;;0.30;0.30;;;;;;;;;;6248515;28;20045;-74
2024/01/20 01:39:45;;;;;;;0.30;0.30;;;;;;;;;;6237250;28;20100;-75
2024/01/20 01:42:45;;;;;;;0.30;0.30;;;;;;;;;;6243931;28;20063;-74
2024/01/20 01:45:45;;;;;;;0.30;0.30;;;;;;;;;;6243998;28;20384;-74
2024/01/20 01:48:46;;;;;;;0.30;0.30;;;;;;;;;;6243708;28;20472;-74
2024/01/20 01:51:47;;;;;;;0.30;0.30;;;;;;;;;;6243727;28;20018;-73
2024/01/20 01:54:47;;;;;;;0.30;0.30;;;;;;;;;;6243798;28;20060;-73
2024/01/20 01:57:50;;;;;;;0.30;0.30;;;;;;;;;;6243280;28;20047;-73
2024/01/20 02:00:51;;;;;;;0.30;0.30;;;;;;;;;;6243964;28;20029;-74
2024/01/20 02:03:51;;;;;;;0.35;0.35;;;;;;;;;;6243744;28;20558;-73
2024/01/20 02:06:52;;;;;;;0.30;0.30;;;;;;;;;;6245373;28;20025;-73
2024/01/20 02:09:52;;;;;;;0.30;0.30;;;;;;;;;;6258950;28;20390;-74
2024/01/20 02:12:52;;;;;;;0.30;0.30;;;;;;;;;;6244183;28;20479;-73
2024/01/20 02:15:52;;;;;;;0.30;0.30;;;;;;;;;;6235386;28;20026;-73
2024/01/20 02:19:00;;;;;;;0.30;0.30;;;;;;;;;;6223805;28;20412;-74
2024/01/20 02:22:08;;;;;;;0.30;0.30;;;;;;;;;;6240532;28;20026;-73
2024/01/20 02:25:08;;;;;;;0.30;0.30;;;;;;;;;;6247465;28;20028;-73
2024/01/20 02:28:08;;;;;;;0.30;0.30;;;;;;;;;;6254561;28;20032;-74
2024/01/20 02:31:08;;;;;;;0.30;0.30;;;;;;;;;;6245699;28;20027;-74
2024/01/20 02:34:09;;;;;;;0.30;0.30;;;;;;;;;;6243386;28;20026;-74
2024/01/20 02:37:09;;;;;;;0.30;0.30;;;;;;;;;;6241357;28;20216;-74
2024/01/20 02:40:10;;;;;;;0.30;0.30;;;;;;;;;;6242649;28;20063;-75
2024/01/20 02:43:10;;;;;;;0.30;0.30;;;;;;;;;;6242780;28;20192;-74
2024/01/20 02:46:10;;;;;;;0.30;0.30;;;;;;;;;;6242438;28;20160;-75
2024/01/20 02:49:10;;;;;;;0.30;0.30;;;;;;;;;;6253259;28;20045;-74
2024/01/20 02:52:11;;;;;;;0.30;0.30;;;;;;;;;;6245871;28;20026;-75
2024/01/20 02:55:11;;;;;;;0.30;0.30;;;;;;;;;;6242896;28;20035;-75
2024/01/20 02:58:11;;;;;;;0.40;0.40;;;;;;;;;;6240877;28;20025;-75
2024/01/20 03:01:11;;;;;;;0.30;0.30;;;;;;;;;;6242754;28;20056;-75
2024/01/20 03:04:13;;;;;;;0.30;0.30;;;;;;;;;;6248654;28;20490;-75
2024/01/20 03:07:14;;;;;;;;;;;;;;;;;;6247990;28;20100;-76
2024/01/20 03:10:14;;;;;;;0.40;0.40;;;;;;;;;;6242233;28;19905;-77
2024/01/20 03:13:14;;;;;;;0.30;0.30;;;;;;;;;;6230007;28;20041;-75
2024/01/20 03:16:14;;;;;;;0.30;0.30;;;;;;;;;;6237442;28;20017;-77
2024/01/20 03:19:15;;;;;;;0.30;0.30;;;;;;;;;;6224361;28;20526;-77
2024/01/20 03:22:15;;;;;;;0.30;0.30;;;;;;;;;;6240179;28;20029;-77
2024/01/20 03:25:15;;;;;;;0.40;0.40;;;;;;;;;;6240127;28;20104;-77
2024/01/20 03:28:16;;;;;;;0.30;0.30;;;;;;;;;;6238092;28;20171;-78
2024/01/20 03:31:16;;;;;;;0.30;0.30;;;;;;;;;;6235435;28;20022;-78
2024/01/20 03:34:17;;;;;;;0.30;0.30;;;;;;;;;;6237912;28;20884;-78
2024/01/20 03:37:17;;;;;;;0.37;0.37;;;;;;;;;;6238722;28;20114;-77
2024/01/20 03:40:17;;;;;;;0.40;0.40;;;;;;;;;;6240544;28;20422;-78
2024/01/20 03:43:17;;;;;;;0.30;0.30;;;;;;;;;;6239693;28;20021;-78
2024/01/20 03:46:20;;;;;;;0.40;0.40;;;;;;;;;;6241626;28;20032;-78
2024/01/20 03:49:21;;;;;;;0.40;0.40;;;;;;;;;;6236234;28;20583;-78
2024/01/20 03:52:21;;;;;;;0.30;0.30;;;;;;;;;;6237314;28;20083;-78
2024/01/20 03:55:21;;;;;;;0.40;0.40;;;;;;;;;;6243347;28;20077;-78
2024/01/20 03:58:21;;;;;;;0.40;0.40;;;;;;;;;;6245218;28;20036;-78
2024/01/20 04:01:22;;;;;;;0.30;0.30;;;;;;;;;;6255598;28;20413;-78
2024/01/20 04:04:22;;;;;;;0.30;0.30;;;;;;;;;;6257476;28;20135;-78
2024/01/20 04:07:22;;;;;;;0.40;0.40;;;;;;;;;;6241366;28;20371;-79
2024/01/20 04:10:22;;;;;;;0.30;0.30;;;;;;;;;;6256876;28;20070;-78
2024/01/20 04:13:23;;;;;;;0.40;0.40;;;;;;;;;;6246218;28;20112;-79
2024/01/20 04:16:23;;;;;;;0.40;0.40;;;;;;;;;;6243669;28;20022;-79
2024/01/20 04:19:23;;;;;;;0.30;0.30;;;;;;;;;;6244960;28;20099;-79
2024/01/20 04:22:23;;;;;;;0.40;0.40;;;;;;;;;;6244013;28;20055;-80
2024/01/20 04:25:25;;;;;;;0.50;0.50;;;;;;;;;;6250375;28;20542;-80
2024/01/20 04:28:25;;;;;;;0.40;0.40;;;;;;;;;;6235006;28;20395;-80
2024/01/20 04:31:25;;;;;;;0.30;0.30;;;;;;;;;;6235896;28;20022;-80
2024/01/20 04:34:31;;;;;;;0.30;0.30;;;;;;;;;;6245421;28;20033;-80
2024/01/20 04:37:31;;;;;;;0.40;0.40;;;;;;;;;;6245567;28;20421;-80
2024/01/20 04:40:31;;;;;;;0.40;0.40;;;;;;;;;;6245686;28;20447;-81
2024/01/20 04:43:31;;;;;;;0.40;0.40;;;;;;;;;;6244217;28;20040;-81
2024/01/20 04:46:32;;;;;;;0.40;0.40;;;;;;;;;;6233509;28;20030;-81
2024/01/20 04:49:32;;;;;;;0.50;0.50;;;;;;;;;;6245301;28;20594;-82
2024/01/20 04:52:32;;;;;;;0.30;0.30;;;;;;;;;;6253093;28;20029;-82
2024/01/20 04:55:32;;;;;;;0.30;0.30;;;;;;;;;;6244219;28;20030;-82
2024/01/20 04:58:33;;;;;;;0.40;0.40;;;;;;;;;;6244747;28;20021;-82
2024/01/20 05:01:33;;;;;;;0.40;0.40;;;;;;;;;;6238936;28;20052;-82
2024/01/20 05:04:33;;;;;;;0.30;0.30;;;;;;;;;;6243382;28;20017;-83
2024/01/20 05:07:33;;;;;;;0.50;0.50;;;;;;;;;;6233692;28;20021;-82
2024/01/20 05:10:34;;;;;;;0.33;0.33;;;;;;;;;;6234620;28;20026;-82
2024/01/20 05:13:34;;;;;;;0.40;0.40;;;;;;;;;;6243377;28;20033;-80
2024/01/20 05:16:34;;;;;;;0.40;0.40;;;;;;;;;;6237172;28;20034;-82
2024/01/20 05:19:39;;;;;;;0.40;0.40;;;;;;;;;;6241872;28;20071;-83
2024/01/20 05:22:39;;;;;;;0.32;0.32;;;;;;;;;;6242406;28;20075;-83
2024/01/20 05:25:39;;;;;;;0.30;0.30;;;;;;;;;;6230715;28;20464;-83
2024/01/20 05:28:39;;;;;;;0.40;0.40;;;;;;;;;;6244386;28;20792;-83
2024/01/20 05:31:40;;;;;;;0.40;0.40;;;;;;;;;;6244383;28;20555;-83
2024/01/20 05:34:40;;;;;;;0.40;0.40;;;;;;;;;;6244996;28;20033;-84
2024/01/20 05:37:40;;;;;;;0.40;0.40;;;;;;;;;;6229459;28;20060;-84
2024/01/20 05:40:42;;;;;;;0.30;0.30;;;;;;;;;;6224885;28;20022;-84
2024/01/20 05:43:42;;;;;;;0.30;0.30;;;;;;;;;;6243521;28;20094;-84
2024/01/20 05:46:42;;;;;;;0.30;0.30;;;;;;;;;;6238056;28;20033;-84
2024/01/20 05:49:43;;;;;;;0.40;0.40;;;;;;;;;;6230873;28;20025;-84
2024/01/20 05:52:43;;;;;;;0.30;0.30;;;;;;;;;;6240920;28;20036;-84
2024/01/20 05:55:43;;;;;;;0.40;0.40;;;;;;;;;;6241926;28;20018;-82
2024/01/20 05:58:43;;;;;;;0.30;0.30;;;;;;;;;;6228792;28;20053;-81
2024/01/20 06:01:50;;;;;;;0.30;0.30;;;;;;;;;;6243425;28;20383;-82
2024/01/20 06:04:50;;;;;;;0.40;0.40;;;;;;;;;;6232111;28;20025;-82
2024/01/20 06:07:50;;;;;;;0.40;0.40;;;;;;;;;;6240285;28;20049;-81
2024/01/20 06:10:51;;;;;;;0.40;0.40;;;;;;;;;;6235710;28;20119;-82
2024/01/20 06:13:51;;;;;;;0.30;0.30;;;;;;;;;;6241765;28;20041;-82
2024/01/20 06:16:51;;;;;;;0.30;0.30;;;;;;;;;;6237031;28;20036;-82
2024/01/20 06:19:52;;;;;;;0.40;0.40;;;;;;;;;;6242504;28;20029;-82
2024/01/20 06:22:53;;;;;;;0.30;0.30;;;;;;;;;;6243520;28;20500;-83
2024/01/20 06:25:53;;;;;;;0.30;0.30;;;;;;;;;;6241964;28;20036;-83
2024/01/20 06:28:53;;;;;;;0.30;0.30;;;;;;;;;;6249243;28;20033;-84
2024/01/20 06:31:54;;;;;;;0.30;0.30;;;;;;;;;;6246214;28;20361;-83
2024/01/20 06:34:54;;;;;;;0.40;0.40;;;;;;;;;;6241811;28;20025;-84
2024/01/20 06:37:54;;;;;;;0.30;0.30;;;;;;;;;;6241247;28;20041;-83
2024/01/20 06:40:54;;;;;;;0.30;0.30;;;;;;;;;;6241887;28;20100;-84
2024/01/20 06:43:54;;;;;;;0.40;0.40;;;;;;;;;;6251978;28;20033;-84
2024/01/20 06:46:55;;;;;;;0.30;0.30;;;;;;;;;;6240336;28;20396;-84
2024/01/20 06:49:55;;;;;;;0.40;0.40;;;;;;;;;;6243012;28;20089;-84
2024/01/20 06:52:55;;;;;;;0.40;0.40;;;;;;;;;;6243005;28;20061;-85
2024/01/20 06:55:55;;;;;;;0.30;0.30;;;;;;;;;;6238122;28;20052;-85
2024/01/20 06:58:56;;;;;;;0.30;0.30;;;;;;;;;;6234014;28;20053;-85
2024/01/20 07:01:56;;;;;;;0.30;0.30;;;;;;;;;;6234842;28;20570;-84
2024/01/20 07:04:57;;;;;;;0.30;0.30;;;;;;;;;;6236797;28;20018;-86
2024/01/20 07:07:57;;;;;;;0.30;0.30;;;;;;;;;;6256092;28;20021;-85
2024/01/20 07:10:58;;;;;;;0.30;0.30;;;;;;;;;;6237312;28;20037;-84
2024/01/20 07:13:58;;;;;;;0.30;0.30;;;;;;;;;;6236284;28;20438;-86
2024/01/20 07:16:59;;;;;;;0.30;0.30;;;;;;;;;;6239922;28;20040;-86
2024/01/20 07:20:00;;;;;;;0.30;0.30;;;;;;;;;;6238720;28;20041;-86
2024/01/20 07:23:00;;;;;;;0.30;0.30;;;;;;;;;;6240443;28;20021;-86
2024/01/20 07:26:00;;;;;;;0.30;0.30;;;;;;;;;;6240309;28;20091;-86
2024/01/20 07:29:00;;;;;;;0.30;0.30;;;;;;;;;;6240154;28;20021;-85
2024/01/20 07:32:01;;;;;;;0.30;0.30;;;;;;;;;;6230140;28;20033;-85
2024/01/20 07:35:01;;;;;;;0.30;0.30;;;;;;;;;;6242375;28;20061;-85
2024/01/20 07:38:02;;;;;;;0.30;0.30;;;;;;;;;;6231079;28;20026;-85
2024/01/20 07:41:04;;;;;;;0.28;0.28;;;;;;;;;;6247174;28;20160;-85
2024/01/20 07:44:05;;;;;;;0.20;0.20;;;;;;;;;;6245680;28;20476;-85
2024/01/20 07:47:05;;;;;;;0.20;0.20;;;;;;;;;;6235033;28;20049;-85
2024/01/20 07:50:06;;;;;;;0.30;0.30;;;;;;;;;;6229214;28;20029;-84
2024/01/20 07:53:06;;;;;;;0.30;0.30;;;;;;;;;;6245002;28;20385;-84
2024/01/20 07:56:09;;;;;;;0.40;0.40;;;;;;;;;;6243197;28;20022;-84
2024/01/20 07:59:09;;;;;;;0.30;0.30;;;;;;;;;;6244934;28;20116;-85
2024/01/20 08:02:09;;;;;;;0.37;0.37;;;;;;;;;;6266655;28;20081;-83
2024/01/20 08:05:10;;;;;;;0.20;0.20;;;;;;;;;;6271447;28;20040;-84
2024/01/20 08:08:10;;;;;;;0.20;0.20;;;;;;;;;;6270779;28;20037;-82
2024/01/20 08:11:12;;;;;;;0.30;0.30;;;;;;;;;;6267678;28;20029;-84
2024/01/20 08:14:12;;;;;;;0.30;0.30;;;;;;;;;;6248718;28;20018;-83
2024/01/20 08:17:12;;;;;;;0.30;0.30;;;;;;;;;;6248360;28;20522;-83
2024/01/20 08:20:12;;;;;;;0.30;0.30;;;;;;;;;;6239184;28;20472;-83
2024/01/20 08:23:14;;;;;;;0.20;0.20;;;;;;;;;;6243602;28;20037;-83
2024/01/20 08:26:15;;;;;;;0.30;0.30;;;;;;;;;;6243087;28;20384;-84
2024/01/20 08:29:17;;;;;;;0.33;0.33;;;;;;;;;;6241543;28;20050;-83
2024/01/20 08:32:17;;;;;;;0.30;0.30;;;;;;;;;;6242785;28;20071;-83
2024/01/20 08:35:17;;;;;;;0.20;0.20;;;;;;;;;;6233657;28;20017;-83
2024/01/20 08:38:19;;;;;;;0.30;0.30;;;;;;;;;;6244360;28;20538;-83
2024/01/20 08:41:19;;;;;;;0.20;0.20;;;;;;;;;;6260476;28;20391;-83
2024/01/20 08:44:19;;;;;;;0.30;0.30;;;;;;;;;;6243664;28;20092;-83
2024/01/20 08:47:19;;;;;;;0.23;0.23;;;;;;;;;;6231430;28;20038;-83
2024/01/20 08:50:20;;;;;;;0.30;0.30;;;;;;;;;;6242938;28;20104;-83
2024/01/20 08:53:20;;;;;;;0.20;0.20;;;;;;;;;;6247029;28;20140;-83
2024/01/20 08:56:20;;;;;;;0.27;0.27;;;;;;;;;;6239474;28;20103;-83
2024/01/20 08:59:21;;;;;;;0.30;0.30;;;;;;;;;;6235693;28;20471;-83
2024/01/20 09:02:21;;;;;;;0.20;0.20;;;;;;;;;;6233769;28;20037;-83
2024/01/20 09:05:21;;;;;;;0.30;0.30;;;;;;;;;;6247332;28;20060;-83
2024/01/20 09:08:21;;;;;;;0.30;0.30;;;;;;;;;;6241753;28;20078;-83
2024/01/20 09:11:22;;;;;;;0.30;0.30;;;;;;;;;;6240928;28;20046;-81
2024/01/20 09:14:22;;;;;;;0.30;0.30;;;;;;;;;;6250817;28;20116;-83
2024/01/20 09:17:23;;;;;;;0.23;0.23;;;;;;;;;;6233416;28;20029;-84
2024/01/20 09:20:24;;;;;;;0.30;0.30;;;;;;;;;;6240669;28;20071;-83
2024/01/20 09:23:24;;;;;;;0.20;0.20;;;;;;;;;;6239346;28;20026;-82
2024/01/20 09:26:24;;;;;;;0.20;0.20;;;;;;;;;;6235448;28;20025;-82
2024/01/20 09:29:25;;;;;;;0.20;0.20;;;;;;;;;;6245157;28;20468;-83
2024/01/20 09:32:26;;;;;;;0.20;0.20;;;;;;;;;;6233716;28;20021;-83
2024/01/20 09:35:26;;;;;;;0.30;0.30;;;;;;;;;;6234412;28;20030;-84
2024/01/20 09:38:28;;;;;;;0.20;0.20;;;;;;;;;;6234473;28;20037;-83
2024/01/20 09:41:29;;;;;;;0.20;0.20;;;;;;;;;;6241700;28;20424;-83
2024/01/20 09:44:29;;;;;;;0.30;0.30;;;;;;;;;;6222501;28;20484;-83
2024/01/20 09:47:29;;;;;;;0.20;0.20;;;;;;;;;;6244604;28;20291;-83
2024/01/20 09:50:30;;;;;;;0.20;0.20;;;;;;;;;;6243475;28;20037;-83
2024/01/20 09:53:30;;;;;;;0.20;0.20;;;;;;;;;;6242436;28;20028;-83
2024/01/20 09:56:30;;;;;;;0.30;0.30;;;;;;;;;;6240275;28;20017;-84
2024/01/20 09:59:31;;;;;;;0.20;0.20;;;;;;;;;;6244351;28;20433;-83
2024/01/20 10:02:34;;;;;;;0.20;0.20;;;;;;;;;;6243652;28;20032;-83
2024/01/20 10:05:34;;;;;;;0.30;0.30;;;;;;;;;;6233547;28;20505;-84
2024/01/20 10:08:35;;;;;;;0.20;0.20;;;;;;;;;;6242377;28;20026;-83
2024/01/20 10:11:35;;;;;;;0.23;0.23;;;;;;;;;;6240151;28;20045;-83
2024/01/20 10:14:35;;;;;;;0.20;0.20;;;;;;;;;;6241414;28;20026;-82
2024/01/20 10:17:36;;;;;;;0.20;0.20;;;;;;;;;;6243672;28;20029;-82
2024/01/20 10:20:36;;;;;;;0.20;0.20;;;;;;;;;;6243218;28;20032;-82
2024/01/20 10:23:37;;;;;;;0.20;0.20;;;;;;;;;;6241073;28;20017;-82
2024/01/20 10:26:43;;;;;;;0.20;0.20;;;;;;;;;;6243107;28;20021;-82
2024/01/20 10:29:47;;;;;;;0.30;0.30;;;;;;;;;;6234865;28;20076;-82
2024/01/20 10:32:48;;;;;;;0.20;0.20;;;;;;;;;;6239454;28;20164;-83
2024/01/20 10:35:49;;;;;;;0.20;0.20;;;;;;;;;;6241387;28;20344;-82
2024/01/20 10:38:52;;;;;;;0.20;0.20;;;;;;;;;;6235042;28;20067;-82
2024/01/20 10:41:53;;;;;;;0.20;0.20;;;;;;;;;;6240840;28;20037;-82
2024/01/20 10:44:58;;;;;;;0.20;0.20;;;;;;;;;;6240877;28;20030;-82
2024/01/20 10:48:04;;;;;;;0.20;0.20;;;;;;;;;;6242489;28;20045;-82
2024/01/20 10:51:07;;;;;;;0.20;0.20;;;;;;;;;;6243635;28;20043;-82
2024/01/20 10:54:08;;;;;;;0.20;0.20;;;;;;;;;;6240922;28;20039;-83
2024/01/20 10:57:09;;;;;;;0.20;0.20;;;;;;;;;;6237057;28;20068;-84
2024/01/20 11:00:11;;;;;;;0.20;0.20;;;;;;;;;;6240952;28;20638;-84
2024/01/20 11:03:12;;;;;;;0.20;0.20;;;;;;;;;;6239468;28;20071;-84
2024/01/20 11:06:19;;;;;;;0.20;0.20;;;;;;;;;;6240052;28;20041;-82
2024/01/20 11:09:23;;;;;;;0.20;0.20;;;;;;;;;;6242489;28;20041;-83
2024/01/20 11:12:24;;;;;;;0.20;0.20;;;;;;;;;;6238466;28;20029;-82
2024/01/20 11:15:30;;;;;;;0.20;0.20;;;;;;;;;;6222237;28;20512;-83
2024/01/20 11:18:30;;;;;;;0.20;0.20;;;;;;;;;;6235597;28;20072;-83
2024/01/20 11:21:30;;;;;;;0.20;0.20;;;;;;;;;;6253632;28;20022;-83
2024/01/20 11:24:42;;;;;;;0.20;0.20;;;;;;;;;;6238368;28;20021;-83
2024/01/20 11:27:50;;;;;;;0.20;0.20;;;;;;;;;;6235621;28;20040;-84
2024/01/20 11:30:50;;;;;;;0.20;0.20;;;;;;;;;;6237394;28;20022;-84
2024/01/20 11:33:50;;;;;;;0.20;0.20;;;;;;;;;;6229841;28;20041;-85
2024/01/20 11:36:52;;;;;;;0.20;0.20;;;;;;;;;;6238767;28;20067;-84
2024/01/20 11:40:06;;;;;;;0.20;0.20;;;;;;;;;;6230321;28;20018;-84
2024/01/20 11:43:07;;;;;;;0.20;0.20;;;;;;;;;;6243442;28;20053;-85
2024/01/20 11:46:08;;;;;;;0.20;0.20;;;;;;;;;;6240851;28;20060;-81
2024/01/20 11:49:08;;;;;;;0.20;0.20;;;;;;;;;;6242017;28;20060;-81
2024/01/20 11:52:09;;;;;;;0.20;0.20;;;;;;;;;;6233008;28;20032;-79
2024/01/20 11:55:09;;;;;;;0.20;0.20;;;;;;;;;;6240348;28;20030;-82
2024/01/20 11:58:09;;;;;;;0.20;0.20;;;;;;;;;;6240488;28;20492;-82
2024/01/20 12:01:09;;;;;;;0.20;0.20;;;;;;;;;;6232096;28;20808;-82
2024/01/20 12:04:10;;;;;;;0.20;0.20;;;;;;;;;;6252925;28;20033;-82
2024/01/20 12:07:10;;;;;;;0.20;0.20;;;;;;;;;;6240294;28;20029;-81
2024/01/20 12:10:11;;;;;;;0.20;0.20;;;;;;;;;;6241481;28;20021;-81
2024/01/20 12:13:12;;;;;;;0.20;0.20;;;;;;;;;;6240081;28;20390;-81
2024/01/20 12:16:13;;;;;;;0.20;0.20;;;;;;;;;;6240844;28;20028;-80
2024/01/20 12:19:15;;;;;;;0.20;0.20;;;;;;;;;;6244911;28;20016;-81
2024/01/20 12:22:15;;;;;;;0.20;0.20;;;;;;;;;;6246363;28;20091;-80
2024/01/20 12:25:16;;;;;;;0.20;0.20;;;;;;;;;;6244136;28;20035;-80
2024/01/20 12:28:17;;;;;;;0.20;0.20;;;;;;;;;;6257278;28;20028;-80
2024/01/20 12:31:17;;;;;;;0.20;0.20;;;;;;;;;;6255185;28;20057;-80
2024/01/20 12:34:18;;;;;;;0.20;0.20;;;;;;;;;;6246917;28;20021;-81
2024/01/20 12:37:18;;;;;;;0.20;0.20;;;;;;;;;;6251973;28;20075;-81
2024/01/20 12:40:19;;;;;;;0.20;0.20;;;;;;;;;;6255435;28;20460;-81
2024/01/20 12:43:19;;;;;;;0.23;0.23;;;;;;;;;;6258595;28;20079;-80
2024/01/20 12:46:19;;;;;;;0.20;0.20;;;;;;;;;;6261688;28;20026;-80
2024/01/20 12:49:20;;;;;;;0.20;0.20;;;;;;;;;;6237009;28;20115;-80
2024/01/20 12:52:21;;;;;;;0.20;0.20;;;;;;;;;;6256414;28;20570;-81
2024/01/20 12:55:23;;;;;;;0.20;0.20;;;;;;;;;;6253053;28;20037;-80
2024/01/20 12:58:23;;;;;;;0.20;0.20;;;;;;;;;;6256080;28;20035;-80
2024/01/20 13:01:24;;;;;;;0.20;0.20;;;;;;;;;;6257830;28;20017;-80
2024/01/20 13:04:24;;;;;;;0.20;0.20;;;;;;;;;;6242734;28;20400;-80
2024/01/20 13:07:24;;;;;;;0.20;0.20;;;;;;;;;;6242167;28;20041;-80
2024/01/20 13:10:24;;;;;;;0.20;0.20;;;;;;;;;;6248550;28;20037;-80
2024/01/20 13:13:25;;;;;;;0.20;0.20;;;;;;;;;;6252154;28;20068;-80
2024/01/20 13:16:25;;;;;;;0.20;0.20;;;;;;;;;;6253206;28;20043;-79
2024/01/20 13:19:25;;;;;;;0.20;0.20;;;;;;;;;;6242119;28;20511;-79
2024/01/20 13:22:26;;;;;;;0.20;0.20;;;;;;;;;;6250110;28;20037;-80
2024/01/20 13:25:26;;;;;;;0.20;0.20;;;;;;;;;;6245167;28;20025;-80
2024/01/20 13:28:28;;;;;;;0.20;0.20;;;;;;;;;;6245719;28;20047;-79
2024/01/20 13:31:28;;;;;;;;;;;;;;;;;;6253810;28;20029;-80
2024/01/20 13:34:29;;;;;;;0.20;0.20;;;;;;;;;;6252257;28;19920;-80
2024/01/20 13:37:29;;;;;;;0.20;0.20;;;;;;;;;;6252755;28;20037;-80
2024/01/20 13:40:31;;;;;;;0.20;0.20;;;;;;;;;;6252916;28;20039;-80
2024/01/20 13:43:31;;;;;;;0.20;0.20;;;;;;;;;;6253870;28;20035;-80
2024/01/20 13:46:31;;;;;;;0.20;0.20;;;;;;;;;;6255364;28;20021;-80
2024/01/20 13:49:31;;;;;;;0.10;0.10;;;;;;;;;;6252518;28;20064;-80
2024/01/20 13:52:32;;;;;;;0.20;0.20;;;;;;;;;;6255510;28;20048;-81
2024/01/20 13:55:32;;;;;;;0.20;0.20;;;;;;;;;;6252120;28;20064;-82
2024/01/20 13:58:32;;;;;;;0.20;0.20;;;;;;;;;;6257733;28;20468;-82
2024/01/20 14:01:32;;;;;;;0.20;0.20;;;;;;;;;;6247121;28;20010;-81
2024/01/20 14:04:33;;;;;;;0.20;0.20;;;;;;;;;;6249128;28;20017;-81
2024/01/20 14:07:33;;;;;;;0.20;0.20;;;;;;;;;;6254298;28;20024;-81
2024/01/20 14:10:33;;;;;;;0.20;0.20;;;;;;;;;;6231994;28;20118;-82
2024/01/20 14:13:34;;;;;;;0.20;0.20;;;;;;;;;;6249966;28;20108;-83
2024/01/20 14:16:34;;;;;;;0.20;0.20;;;;;;;;;;6240501;28;20107;-77
2024/01/20 14:19:34;;;;;;;0.20;0.20;;;;;;;;;;6239467;28;20018;-77
2024/01/20 14:22:34;;;;;;;0.20;0.20;;;;;;;;;;6237284;28;20095;-77
2024/01/20 14:25:35;;;;;;;0.20;0.20;;;;;;;;;;6241301;28;20056;-77
2024/01/20 14:28:36;;;;;;;0.30;0.30;;;;;;;;;;6230740;28;20026;-77
2024/01/20 14:31:45;;;;;;;0.20;0.20;;;;;;;;;;6233922;28;20133;-76
2024/01/20 14:34:46;;;;;;;0.20;0.20;;;;;;;;;;6245333;28;20032;-77
2024/01/20 14:37:46;;;;;;;0.20;0.20;;;;;;;;;;6247912;28;20453;-77
2024/01/20 14:40:46;;;;;;;0.30;0.30;;;;;;;;;;6241808;28;20033;-77
2024/01/20 14:43:48;;;;;;;0.20;0.20;;;;;;;;;;6241170;28;20467;-77
2024/01/20 14:46:49;;;;;;;0.20;0.20;;;;;;;;;;6240772;28;20363;-77
2024/01/20 14:49:49;;;;;;;0.30;0.30;;;;;;;;;;6241638;28;20029;-77
2024/01/20 14:52:50;;;;;;;0.20;0.20;;;;;;;;;;6241068;28;20032;-77
2024/01/20 14:55:50;;;;;;;0.20;0.20;;;;;;;;;;6237568;28;20041;-77
2024/01/20 14:58:50;;;;;;;0.30;0.30;;;;;;;;;;6242231;28;20025;-77
2024/01/20 15:01:50;;;;;;;0.20;0.20;;;;;;;;;;6240126;28;20558;-77
2024/01/20 15:04:51;;;;;;;0.30;0.30;;;;;;;;;;6241280;28;20026;-77
2024/01/20 15:07:51;;;;;;;0.20;0.20;;;;;;;;;;6233392;28;20030;-77
2024/01/20 15:10:51;;;;;;;0.20;0.20;;;;;;;;;;6251221;28;20496;-77
2024/01/20 15:13:53;;;;;;;0.20;0.20;;;;;;;;;;6239516;28;20024;-77
2024/01/20 15:16:53;;;;;;;;;;;;;;;;;;6241608;28;20043;-77
2024/01/20 15:19:53;;;;;;;0.30;0.30;;;;;;;;;;6241258;28;19913;-77
2024/01/20 15:22:53;;;;;;;0.30;0.30;;;;;;;;;;6239510;28;20071;-76
2024/01/20 15:25:54;;;;;;;0.30;0.30;;;;;;;;;;6240477;28;20422;-87
2024/01/20 15:28:54;;;;;;;0.30;0.30;;;;;;;;;;6252648;28;20090;-88
2024/01/20 15:31:54;;;;;;;0.30;0.30;;;;;;;;;;6241839;28;20022;-86
2024/01/20 15:34:54;;;;;;;0.30;0.30;;;;;;;;;;6231926;28;20380;-88
2024/01/20 15:37:54;;;;;;;0.30;0.30;;;;;;;;;;6230562;28;20018;-85
2024/01/20 15:40:55;;;;;;;0.30;0.30;;;;;;;;;;6241586;28;20427;-87
2024/01/20 15:43:56;;;;;;;0.30;0.30;;;;;;;;;;6267622;28;20028;-87
2024/01/20 15:46:56;;;;;;;0.30;0.30;;;;;;;;;;6266780;28;20163;-87
2024/01/20 15:49:56;;;;;;;0.30;0.30;;;;;;;;;;6241127;28;20029;-87
2024/01/20 15:52:56;;;;;;;0.30;0.30;;;;;;;;;;6248935;28;20025;-87
2024/01/20 15:55:58;;;;;;;0.20;0.20;;;;;;;;;;6246672;28;20512;-88
2024/01/20 15:58:59;;;;;;;0.30;0.30;;;;;;;;;;6251608;28;20052;-87
2024/01/20 16:02:00;;;;;;;0.30;0.30;;;;;;;;;;6240982;28;20516;-87
2024/01/20 16:05:00;;;;;;;0.20;0.20;;;;;;;;;;6246959;28;20033;-77
2024/01/20 16:08:01;;;;;;;0.30;0.30;;;;;;;;;;6247287;28;20036;-77
2024/01/20 16:11:01;;;;;;;0.30;0.30;;;;;;;;;;6245669;28;20030;-77
2024/01/20 16:14:02;;;;;;;0.20;0.20;;;;;;;;;;6250264;28;20472;-77
2024/01/20 16:17:03;;;;;;;0.20;0.20;;;;;;;;;;6246157;28;20032;-78
2024/01/20 16:20:03;;;;;;;0.30;0.30;;;;;;;;;;6238561;28;20061;-78
2024/01/20 16:23:03;;;;;;;0.30;0.30;;;;;;;;;;6246566;28;20052;-78
2024/01/20 16:26:03;;;;;;;0.20;0.20;;;;;;;;;;6245904;28;20033;-77
2024/01/20 16:29:04;;;;;;;0.30;0.30;;;;;;;;;;6251198;28;20066;-78
2024/01/20 16:32:07;;;;;;;0.30;0.30;;;;;;;;;;6261130;28;20029;-78
2024/01/20 16:35:08;;;;;;;0.30;0.30;;;;;;;;;;6255812;28;20620;-78
2024/01/20 16:38:08;;;;;;;0.30;0.30;;;;;;;;;;6251910;28;20029;-78
2024/01/20 16:41:10;;;;;;;0.30;0.30;;;;;;;;;;6250942;28;20108;-78
2024/01/20 16:44:10;;;;;;;0.28;0.28;;;;;;;;;;6259360;28;20025;-79
2024/01/20 16:47:10;;;;;;;0.30;0.30;;;;;;;;;;6260955;28;20392;-79
2024/01/20 16:50:11;;;;;;;0.30;0.30;;;;;;;;;;6247936;28;20494;-77
2024/01/20 16:53:11;;;;;;;0.30;0.30;;;;;;;;;;6260233;28;20479;-77
2024/01/20 16:56:12;;;;;;;0.30;0.30;;;;;;;;;;6254483;28;20056;-78
2024/01/20 16:59:12;;;;;;;0.30;0.30;;;;;;;;;;6255889;28;20032;-79
2024/01/20 17:02:12;;;;;;;0.30;0.30;;;;;;;;;;6276608;28;20060;-79
2024/01/20 17:05:13;;;;;;;0.30;0.30;;;;;;;;;;6256630;28;20032;-79
2024/01/20 17:08:13;;;;;;;0.40;0.40;;;;;;;;;;6254706;28;20033;-79
2024/01/20 17:11:13;;;;;;;0.30;0.30;;;;;;;;;;6252471;28;20044;-79
2024/01/20 17:14:17;;;;;;;0.30;0.30;;;;;;;;;;6272325;28;20025;-78
2024/01/20 17:17:18;;;;;;;0.30;0.30;;;;;;;;;;6252194;28;20067;-82
2024/01/20 17:20:19;;;;;;;0.20;0.20;;;;;;;;;;6256865;28;20480;-81
2024/01/20 17:23:19;;;;;;;0.30;0.30;;;;;;;;;;6259492;28;20021;-81
2024/01/20 17:26:29;;;;;;;0.30;0.30;;;;;;;;;;6257152;28;20030;-82
2024/01/20 17:29:29;;;;;;;0.30;0.30;;;;;;;;;;6251820;28;20060;-81
2024/01/20 17:32:30;;;;;;;0.30;0.30;;;;;;;;;;6250267;28;20809;-81
2024/01/20 17:35:30;;;;;;;0.33;0.33;;;;;;;;;;6245499;28;20079;-81
2024/01/20 17:38:30;;;;;;;0.30;0.30;;;;;;;;;;6248072;28;20029;-80
2024/01/20 17:41:31;;;;;;;0.30;0.30;;;;;;;;;;6247059;28;20106;-81
2024/01/20 17:44:32;;;;;;;0.30;0.30;;;;;;;;;;6246269;28;20056;-81
2024/01/20 17:47:33;;;;;;;0.30;0.30;;;;;;;;;;6243284;28;20298;-81
2024/01/20 17:50:35;;;;;;;0.30;0.30;;;;;;;;;;6218822;28;20714;-81
2024/01/20 17:53:35;;;;;;;0.40;0.40;;;;;;;;;;6227001;28;20088;-80
2024/01/20 17:56:35;;;;;;;0.40;0.40;;;;;;;;;;6228423;28;20086;-80
2024/01/20 17:59:36;;;;;;;0.30;0.30;;;;;;;;;;6228152;28;20022;-81
2024/01/20 18:02:37;;;;;;;0.30;0.30;;;;;;;;;;6219713;28;20026;-81